Latest Weather Observations for Frederick Reef

IDQ60801

Issued at 10:52 pm EST Wednesday 25 May 2022 (issued every 10 minutes, with the page automatically refreshed every 10 minutes)

About weather observations | Map of weather stations | Latest weather observations for QLD | Other Formats
Station Details ID: 200701 Name: FREDERICK REEF Lat: -20.94 Lon: 154.40 Height: 4.9 m
Data from the previous 72 hours. | See also: Recent months at Frederick Reef
Date/Time
EST
Temp
°C
App
Temp
°C
Dew
Point
°C
Rel
Hum
%
Delta-T
°C
Wind Press
QNH
hPa
Press
MSL
hPa
Rain since
9am
mm
Dir  Spd
km/h
Gust
km/h
Spd
kts
Gust
kts
25/10:30pm 24.5 - - - - SE 30 35 16 19 1012.1 1012.1 -
25/10:00pm 24.5 - - - - SE 28 32 15 17 1012.4 1012.4 -
25/09:30pm 24.4 - - - - SE 28 30 15 16 1012.7 1012.7 -
25/09:00pm 24.2 - - - - SE 33 39 18 21 1012.6 1012.6 -
25/08:30pm 24.8 - - - - SE 30 33 16 18 1012.9 1012.9 -
25/08:00pm 24.8 - - - - SE 32 37 17 20 1012.9 1012.9 -
25/07:30pm 24.7 - - - - SE 32 37 17 20 1012.6 1012.6 -
25/07:00pm 24.6 - - - - SE 28 32 15 17 1012.5 1012.5 -
25/06:30pm 24.3 - - - - SE 28 32 15 17 1012.1 1012.1 -
25/06:00pm 24.6 - - - - SE 33 37 18 20 1011.9 1011.9 -
25/05:30pm 24.6 - - - - SE 32 35 17 19 1011.7 1011.7 -
25/05:00pm 24.5 - - - - SE 30 33 16 18 1011.6 1011.6 -
25/04:30pm 24.8 - - - - SE 32 35 17 19 1011.3 1011.3 -
25/04:00pm 24.6 - - - - SE 32 35 17 19 1011.1 1011.1 -
25/03:30pm 25.0 - - - - SE 28 33 15 18 1011.0 1011.0 -
25/03:00pm 24.7 - - - - SE 28 33 15 18 1010.9 1010.9 -
25/02:30pm 24.6 - - - - SSE 28 30 15 16 1011.1 1011.1 -
25/02:00pm 24.5 - - - - SSE 28 32 15 17 1011.2 1011.2 -
25/01:30pm 24.6 - - - - SSE 26 30 14 16 1011.4 1011.4 -
25/01:00pm 24.3 - - - - SSE 26 30 14 16 1011.8 1011.8 -
25/12:30pm 24.4 - - - - SSE 28 30 15 16 1012.0 1012.0 -
25/12:00pm 24.3 - - - - SSE 30 35 16 19 1012.4 1012.4 -
25/11:30am 24.3 - - - - SSE 32 35 17 19 1012.6 1012.6 -
25/11:00am 24.3 - - - - SSE 32 37 17 20 1012.7 1012.7 -
25/10:30am 24.4 - - - - SSE 32 35 17 19 1013.4 1013.4 -
25/10:00am 24.5 - - - - SSE 33 35 18 19 1013.7 1013.7 -
25/09:30am 24.5 - - - - SSE 33 37 18 20 1014.2 1014.2 -
25/09:00am 24.3 - - - - SSE 33 37 18 20 1014.4 1014.4 -
25/08:30am 24.1 - - - - SSE 37 43 20 23 1014.0 1014.0 -
25/08:00am 24.0 - - - - SSE 37 43 20 23 1013.7 1013.7 -
25/07:30am 24.3 - - - - SSE 35 39 19 21 1013.9 1013.9 -
25/07:00am 24.0 - - - - SSE 33 39 18 21 1013.5 1013.5 -
25/06:30am 23.9 - - - - SSE 33 39 18 21 1013.4 1013.4 -
25/06:00am 24.0 - - - - SSE 33 37 18 20 1013.0 1013.0 -
25/05:30am 23.6 - - - - S 30 35 16 19 1012.8 1012.8 -
25/05:00am 23.9 - - - - SSE 26 28 14 15 1012.7 1012.7 -
25/04:30am 24.0 - - - - SSE 28 33 15 18 1012.4 1012.4 -
25/04:00am 22.9 - - - - S 37 41 20 22 1012.2 1012.2 -
25/03:30am 23.9 - - - - SSE 26 30 14 16 1012.5 1012.5 -
25/03:00am 23.9 - - - - SSE 26 30 14 16 1012.7 1012.7 -
25/02:30am 24.0 - - - - SSE 30 33 16 18 1012.4 1012.4 -
25/02:00am 24.0 - - - - SSE 24 28 13 15 1012.7 1012.7 -
25/01:30am 24.0 - - - - SSE 28 30 15 16 1012.8 1012.8 -
25/01:00am 23.9 - - - - SSE 24 28 13 15 1013.1 1013.1 -
25/12:30am 24.2 - - - - SSE 28 32 15 17 1013.3 1013.3 -
25/12:00am 24.2 - - - - SSE 26 30 14 16 1013.5 1013.5 -
 
Date/Time
EST
Temp
°C
App
Temp
°C
Dew
Point
°C
Rel
Hum
%
Delta-T
°C
Wind Press
QNH
hPa
Press
MSL
hPa
Rain since
9am
mm
Dir  Spd
km/h
Gust
km/h
Spd
kts
Gust
kts
24/11:30pm 24.1 - - - - SSE 28 33 15 18 1013.7 1013.7 -
24/11:00pm 24.2 - - - - SE 30 33 16 18 1014.0 1014.0 -
24/10:30pm 24.3 - - - - SE 26 30 14 16 1014.2 1014.2 -
24/10:00pm 24.0 - - - - SE 28 32 15 17 1014.2 1014.2 -
24/09:30pm 24.0 - - - - SE 28 32 15 17 1014.3 1014.3 -
24/09:00pm 23.1 - - - - SE 30 39 16 21 1014.2 1014.2 -
24/08:30pm 23.7 - - - - SSE 26 28 14 15 1014.1 1014.1 -
24/08:00pm 23.8 - - - - SE 22 24 12 13 1014.2 1014.2 -
24/07:30pm 24.2 - - - - SE 24 28 13 15 1013.8 1013.8 -
24/07:00pm 23.9 - - - - SE 26 28 14 15 1013.7 1013.7 -
24/06:30pm 23.9 - - - - ESE 26 30 14 16 1013.1 1013.1 -
24/06:00pm 24.0 - - - - ESE 30 33 16 18 1012.9 1012.9 -
24/05:30pm 24.0 - - - - ESE 30 33 16 18 1012.5 1012.5 -
24/05:00pm 24.3 - - - - SE 30 33 16 18 1012.4 1012.4 -
24/04:30pm 24.3 - - - - SE 28 32 15 17 1012.0 1012.0 -
24/04:00pm 24.3 - - - - ESE 26 30 14 16 1011.5 1011.5 -
24/03:30pm 24.4 - - - - ESE 32 37 17 20 1011.0 1011.0 -
24/03:00pm 24.1 - - - - ESE 28 32 15 17 1011.4 1011.4 -
24/02:30pm 24.2 - - - - SE 26 32 14 17 1011.6 1011.6 -
24/02:00pm 24.2 - - - - SE 28 32 15 17 1011.6 1011.6 -
24/01:30pm 23.9 - - - - SE 26 30 14 16 1012.0 1012.0 -
24/01:00pm 23.7 - - - - SE 28 32 15 17 1012.2 1012.2 -
24/12:30pm 23.3 - - - - SE 26 32 14 17 1012.2 1012.2 -
24/12:00pm 23.4 - - - - SE 26 32 14 17 1012.5 1012.5 -
24/11:30am 22.8 - - - - SE 28 32 15 17 1013.0 1013.0 -
24/11:00am 23.1 - - - - SE 32 35 17 19 1013.3 1013.3 -
24/10:30am 22.9 - - - - SE 32 35 17 19 1013.7 1013.7 -
24/10:00am 22.9 - - - - SE 33 39 18 21 1013.9 1013.9 -
24/09:30am 23.0 - - - - ESE 35 39 19 21 1014.1 1014.1 -
24/09:00am 23.0 - - - - ESE 35 41 19 22 1014.2 1014.2 -
24/08:30am 22.4 - - - - SE 41 46 22 25 1014.2 1014.2 -
24/08:00am 22.5 - - - - SE 43 46 23 25 1014.0 1014.0 -
24/07:30am 22.5 - - - - SE 43 46 23 25 1013.5 1013.5 -
24/07:00am 22.9 - - - - ESE 39 43 21 23 1013.5 1013.5 -
24/06:30am 22.9 - - - - SE 32 35 17 19 1013.5 1013.5 -
24/06:00am 22.0 - - - - SE 33 37 18 20 1013.3 1013.3 -
24/05:30am 22.4 - - - - SSE 28 41 15 22 1013.1 1013.1 -
24/05:00am 21.8 - - - - SSE 37 44 20 24 1013.3 1013.3 -
24/04:57am 21.7 - - - - SSE 37 44 20 24 1013.3 - -
24/04:56am 21.7 - - - - SSE 35 43 19 23 1013.3 1013.3 -
24/04:30am 22.0 - - - - S 22 28 12 15 1013.3 1013.3 -
24/04:00am 22.1 - - - - SSW 15 19 8 10 1013.0 1013.0 -
24/03:30am 21.6 - - - - SW 15 20 8 11 1012.9 1012.9 -
24/03:00am 22.0 - - - - WNW 24 33 13 18 1013.0 1013.0 -
24/02:30am 21.9 - - - - N 22 39 12 21 1013.0 1013.0 -
24/02:24am 21.6 - - - - N 20 46 11 25 1013.2 - -
24/02:02am 22.6 - - - - NNW 43 56 23 30 1012.7 - -
24/02:00am 22.7 - - - - N 39 56 21 30 1012.6 1012.6 -
24/01:57am 23.8 - - - - NNE 37 48 20 26 1012.6 1012.6 -
24/01:53am 24.1 - - - - NNE 39 41 21 22 1012.5 - -
24/01:30am 24.3 - - - - NE 33 41 18 22 1012.7 1012.7 -
24/01:00am 24.6 - - - - ENE 33 41 18 22 1012.4 1012.4 -
24/12:30am 23.6 - - - - ENE 32 43 17 23 1012.7 1012.7 -
24/12:00am 24.6 - - - - ENE 35 41 19 22 1012.9 1012.9 -
 
Date/Time
EST
Temp
°C
App
Temp
°C
Dew
Point
°C
Rel
Hum
%
Delta-T
°C
Wind Press
QNH
hPa
Press
MSL
hPa
Rain since
9am
mm
Dir  Spd
km/h
Gust
km/h
Spd
kts
Gust
kts
23/11:30pm 25.1 - - - - ENE 44 50 24 27 1013.3 1013.3 -
23/11:00pm 25.0 - - - - ENE 37 41 20 22 1013.6 1013.6 -
23/10:30pm 25.4 - - - - ENE 37 41 20 22 1014.0 1014.0 -
23/10:00pm 25.2 - - - - E 35 43 19 23 1013.8 1013.8 -
23/09:30pm 25.1 - - - - E 37 43 20 23 1013.7 1013.7 -
23/09:00pm 25.1 - - - - E 41 44 22 24 1013.8 1013.8 -
23/08:30pm 24.8 - - - - E 39 43 21 23 1014.1 1014.1 -
23/08:00pm 24.6 - - - - E 32 39 17 21 1014.5 1014.5 -
23/07:57pm 24.0 - - - - E 37 39 20 21 1014.3 - -
23/07:30pm 23.8 - - - - SE 33 41 18 22 1014.5 1014.5 -
23/07:00pm 23.3 - - - - ESE 37 39 20 21 1013.9 1013.9 -
23/06:30pm 24.4 - - - - ESE 28 32 15 17 1014.0 1014.0 -
23/06:00pm 24.8 - - - - ESE 26 30 14 16 1013.8 1013.8 -
23/05:30pm 25.1 - - - - E 26 32 14 17 1013.5 1013.5 -
23/05:00pm 25.1 - - - - E 30 32 16 17 1013.3 1013.3 -
23/04:30pm 24.9 - - - - E 28 32 15 17 1013.0 1013.0 -
23/04:00pm 25.3 - - - - E 26 30 14 16 1012.8 1012.8 -
23/03:30pm 25.1 - - - - E 30 32 16 17 1012.6 1012.6 -
23/03:00pm 25.1 - - - - E 26 28 14 15 1012.6 1012.6 -
23/02:30pm 25.1 - - - - E 24 28 13 15 1012.8 1012.8 -
23/02:00pm 25.1 - - - - ESE 24 28 13 15 1012.8 1012.8 -
23/01:30pm 25.1 - - - - ESE 24 28 13 15 1012.9 1012.9 -
23/01:00pm 25.1 - - - - E 26 28 14 15 1013.0 1013.0 -
23/12:30pm 25.0 - - - - ESE 24 28 13 15 1013.5 1013.5 -
23/12:00pm 25.5 - - - - ESE 22 26 12 14 1013.8 1013.8 -
23/11:30am 25.1 - - - - ESE 24 28 13 15 1014.1 1014.1 -
23/11:00am 25.2 - - - - ESE 24 28 13 15 1014.4 1014.4 -
23/10:30am 25.2 - - - - E 24 28 13 15 1014.6 1014.6 -
23/10:00am 25.1 - - - - E 26 32 14 17 1014.8 1014.8 -
23/09:30am 25.3 - - - - E 28 32 15 17 1015.2 1015.2 -
23/09:00am 25.1 - - - - E 24 30 13 16 1015.1 1015.1 -
23/08:30am 25.0 - - - - E 26 30 14 16 1015.0 1015.0 -
23/08:00am 25.1 - - - - E 28 33 15 18 1014.6 1014.6 -
23/07:30am 25.0 - - - - E 26 32 14 17 1014.3 1014.3 -
23/07:00am 24.7 - - - - E 28 32 15 17 1014.1 1014.1 -
23/06:30am 24.5 - - - - E 26 30 14 16 1013.7 1013.7 -
23/06:00am 24.3 - - - - E 28 32 15 17 1013.6 1013.6 -
23/05:30am 24.2 - - - - ESE 33 37 18 20 1013.2 1013.2 -
23/05:00am 24.5 - - - - ESE 32 35 17 19 1012.8 1012.8 -
23/04:30am 24.6 - - - - ESE 32 35 17 19 1012.5 1012.5 -
23/04:00am 24.4 - - - - ESE 32 35 17 19 1012.5 1012.5 -
23/03:30am 24.1 - - - - ESE 30 33 16 18 1012.2 1012.2 -
23/03:00am 24.1 - - - - ESE 32 41 17 22 1012.3 1012.3 -
23/02:30am 24.1 - - - - ESE 35 39 19 21 1012.4 1012.4 -
23/02:00am 24.3 - - - - SE 32 35 17 19 1012.6 1012.6 -
23/01:30am 24.6 - - - - SE 32 37 17 20 1012.8 1012.8 -
23/01:00am 24.6 - - - - SE 33 37 18 20 1012.6 1012.6 -
23/12:30am 24.3 - - - - SE 37 41 20 22 1012.5 1012.5 -
23/12:00am 24.3 - - - - SE 39 43 21 23 1012.6 1012.6 -
 
Date/Time
EST
Temp
°C
App
Temp
°C
Dew
Point
°C
Rel
Hum
%
Delta-T
°C
Wind Press
QNH
hPa
Press
MSL
hPa
Rain since
9am
mm
Dir  Spd
km/h
Gust
km/h
Spd
kts
Gust
kts
22/11:30pm 24.4 - - - - ESE 37 43 20 23 1012.9 1012.9 -
22/11:00pm 24.6 - - - - ESE 37 46 20 25 1013.0 1013.0 -

Other formats

Comma delimited format used in spreadsheet applications
http://www.bom.gov.au/fwo/IDQ60801/IDQ60801.94393.axf

JavaScript Object Notation format (JSON) in row-major order
http://www.bom.gov.au/fwo/IDQ60801/IDQ60801.94393.json

Data quality

Most of these data are generated automatically and are frequently updated. Quality checks on data are not normally performed. It is possible for incorrect values to appear. Refer to information at About Latest Weather Observations and please check the disclaimer before using these data.